Terminal Aerodrome Forecast
Issued by NWS

Home | Current Version | Previous Version | Text Only | Print | Product List | Glossary On
Versions: 1 2 3 4 5 6 7 8 9 10 11 12
000
FTUS44 KTSA 262329
TAFXNA
TAF
KXNA 262329Z 2700/2724 VRB04KT P6SM VCTS SCT040CB BKN250
     FM270100 VRB02KT P6SM BKN100
     FM270800 00000KT 4SM BR BKN250
     FM271500 VRB03KT P6SM SCT035 BKN250
     FM271900 19005KT P6SM VCTS BKN050CB=

USA.gov is the U.S. government's official web portal to all federal, state and local government web resources and services.